Time;durP1;ratioP1;P1;durP2;ratioP2;P2;SDS_P1;SDS_P2;PMS_P1;PMS_P2;Temp;Humidity;BMP_temperature;BMP_pressure;BME280_temperature;BME280_humidity;BME280_pressure;Samples;Min_cycle;Max_cycle;Signal;HPM_P1;HPM_P2
2022/11/07 00:01:51;;;;;;;8.40;6.10;;;;;;;;;;108763;1264;22551;-31
2022/11/07 00:04:23;;;;;;;8.00;5.80;;;;;;;;;;108629;1265;359452;-31
2022/11/07 00:06:55;;;;;;;7.80;5.70;;;;;;;;;;108770;1263;22508;-31
2022/11/07 00:09:28;;;;;;;9.10;6.10;;;;;;;;;;108787;1264;22609;-31
2022/11/07 00:12:01;;;;;;;8.00;5.80;;;;;;;;;;108758;1265;25278;-31
2022/11/07 00:14:34;;;;;;;7.40;5.50;;;;;;;;;;108742;1264;25256;-31
2022/11/07 00:17:07;;;;;;;8.20;5.80;;;;;;;;;;108775;1266;22603;-31
2022/11/07 00:19:39;;;;;;;8.20;5.60;;;;;;;;;;108751;1265;23858;-31
2022/11/07 00:22:12;;;;;;;9.10;5.90;;;;;;;;;;108761;1265;22542;-31
2022/11/07 00:24:44;;;;;;;9.80;6.20;;;;;;;;;;108748;1265;22560;-31
2022/11/07 00:27:16;;;;;;;8.30;5.50;;;;;;;;;;108736;1259;22740;-31
2022/11/07 00:29:48;;;;;;;8.60;6.30;;;;;;;;;;108619;1271;22582;-31
2022/11/07 00:32:24;;;;;;;7.80;5.80;;;;;;;;;;108768;1268;23095;-31
2022/11/07 00:34:59;;;;;;;7.40;6.00;;;;;;;;;;108742;1267;23938;-31
2022/11/07 00:37:32;;;;;;;8.10;6.00;;;;;;;;;;108780;1268;22570;-31
2022/11/07 00:40:07;;;;;;;7.40;5.90;;;;;;;;;;108782;1266;22547;-31
2022/11/07 00:42:40;;;;;;;8.20;5.80;;;;;;;;;;108805;1263;22534;-31
2022/11/07 00:45:13;;;;;;;7.90;5.90;;;;;;;;;;108705;1268;22527;-31
2022/11/07 00:47:45;;;;;;;7.80;6.00;;;;;;;;;;108804;1265;22530;-31
2022/11/07 00:50:17;;;;;;;7.60;5.80;;;;;;;;;;108783;1263;22786;-31
2022/11/07 00:52:49;;;;;;;7.70;5.90;;;;;;;;;;108766;1263;22544;-31
2022/11/07 00:55:21;;;;;;;;;;;;;;;;;;108769;1268;23882;-31
2022/11/07 00:57:53;;;;;;;9.00;5.90;;;;;;;;;;108773;1265;22519;-31
2022/11/07 01:00:25;;;;;;;7.50;5.90;;;;;;;;;;108756;1267;22535;-31
2022/11/07 01:05:44;;;;;;;8.10;6.00;;;;;;;;;;108715;1263;22539;-31
2022/11/07 01:08:16;;;;;;;8.30;6.40;;;;;;;;;;108794;1265;22586;-31
2022/11/07 01:10:48;;;;;;;7.80;6.20;;;;;;;;;;108770;1266;22494;-31
2022/11/07 01:13:23;;;;;;;7.80;5.90;;;;;;;;;;108778;1268;22756;-31
2022/11/07 01:15:55;;;;;;;7.80;5.80;;;;;;;;;;108726;1268;22543;-31
2022/11/07 01:18:27;;;;;;;7.40;5.80;;;;;;;;;;108791;1263;22544;-31
2022/11/07 01:21:03;;;;;;;7.50;5.70;;;;;;;;;;108785;1264;22554;-31
2022/11/07 01:23:36;;;;;;;7.20;5.60;;;;;;;;;;108806;1264;22546;-31
2022/11/07 01:26:08;;;;;;;;;;;;;;;;;;108768;1262;25510;-31
2022/11/07 01:28:41;;;;;;;7.70;5.70;;;;;;;;;;108774;1267;23165;-31
2022/11/07 01:31:17;;;;;;;7.30;5.40;;;;;;;;;;108774;1262;22599;-31
2022/11/07 01:33:49;;;;;;;8.10;5.60;;;;;;;;;;108775;1265;22518;-31
2022/11/07 01:36:22;;;;;;;7.10;5.80;;;;;;;;;;108782;1262;22527;-31
2022/11/07 01:38:59;;;;;;;7.80;5.90;;;;;;;;;;108778;1265;22567;-31
2022/11/07 01:41:36;;;;;;;7.70;5.90;;;;;;;;;;108762;1265;22612;-31
2022/11/07 01:44:53;;;;;;;7.50;5.80;;;;;;;;;;108764;1264;22716;-31
2022/11/07 01:47:30;;;;;;;8.10;5.60;;;;;;;;;;108718;1267;22544;-31
2022/11/07 01:50:04;;;;;;;7.60;5.80;;;;;;;;;;108784;1263;22561;-31
2022/11/07 01:52:40;;;;;;;8.10;5.90;;;;;;;;;;108820;1262;22545;-31
2022/11/07 01:55:18;;;;;;;8.10;5.60;;;;;;;;;;108806;1266;22545;-31
2022/11/07 01:57:56;;;;;;;7.30;5.80;;;;;;;;;;108813;1268;22550;-31
2022/11/07 02:00:29;;;;;;;7.30;5.40;;;;;;;;;;108587;1265;22631;-31
2022/11/07 02:03:07;;;;;;;7.90;5.60;;;;;;;;;;108791;1272;25225;-31
2022/11/07 02:05:46;;;;;;;7.30;5.70;;;;;;;;;;108777;1263;25255;-31
2022/11/07 02:08:19;;;;;;;7.20;5.30;;;;;;;;;;108787;1265;22534;-31
2022/11/07 02:10:52;;;;;;;6.90;5.50;;;;;;;;;;108798;1268;25684;-31
2022/11/07 02:13:29;;;;;;;7.60;5.70;;;;;;;;;;108791;1265;23880;-31
2022/11/07 02:16:05;;;;;;;7.50;5.60;;;;;;;;;;108753;1263;22637;-31
2022/11/07 02:18:42;;;;;;;7.70;5.80;;;;;;;;;;108802;1262;22713;-31
2022/11/07 02:21:27;;;;;;;7.30;5.90;;;;;;;;;;108773;1263;25941;-31
2022/11/07 02:24:11;;;;;;;7.20;5.60;;;;;;;;;;108813;1268;22518;-31
2022/11/07 02:26:44;;;;;;;7.60;5.60;;;;;;;;;;108745;1266;22591;-31
2022/11/07 02:29:17;;;;;;;7.30;5.60;;;;;;;;;;108795;1268;22555;-31
2022/11/07 02:31:48;;;;;;;;;;;;;;;;;;108792;1265;25216;-31
2022/11/07 02:34:22;;;;;;;7.70;5.70;;;;;;;;;;108793;1268;22745;-31
2022/11/07 02:36:58;;;;;;;7.20;5.40;;;;;;;;;;108775;1262;22664;-31
2022/11/07 02:39:30;;;;;;;8.10;5.70;;;;;;;;;;108779;1268;22573;-31
2022/11/07 02:42:05;;;;;;;7.70;5.60;;;;;;;;;;108799;1262;22567;-30
2022/11/07 02:44:37;;;;;;;7.50;5.80;;;;;;;;;;108810;1266;22530;-31
2022/11/07 02:47:10;;;;;;;7.40;5.60;;;;;;;;;;108757;1267;22560;-31
2022/11/07 02:49:42;;;;;;;7.00;5.50;;;;;;;;;;108806;1263;22536;-31
2022/11/07 02:52:15;;;;;;;7.70;5.30;;;;;;;;;;108807;1268;23898;-31
2022/11/07 02:54:47;;;;;;;7.80;6.10;;;;;;;;;;108778;1264;22532;-31
2022/11/07 02:57:19;;;;;;;7.70;5.70;;;;;;;;;;108761;1264;22686;-31
2022/11/07 02:59:51;;;;;;;6.90;5.30;;;;;;;;;;108801;1265;22504;-31
2022/11/07 03:02:24;;;;;;;7.40;5.60;;;;;;;;;;108802;1263;22660;-31
2022/11/07 03:04:56;;;;;;;7.30;5.50;;;;;;;;;;108813;1263;22545;-31
2022/11/07 03:07:29;;;;;;;7.60;6.00;;;;;;;;;;108729;1265;22558;-31
2022/11/07 03:10:01;;;;;;;6.70;5.30;;;;;;;;;;108813;1269;22538;-30
2022/11/07 03:12:33;;;;;;;6.90;5.60;;;;;;;;;;108808;1264;22656;-31
2022/11/07 03:15:08;;;;;;;7.20;5.60;;;;;;;;;;108804;1268;22555;-31
2022/11/07 03:17:40;;;;;;;6.60;5.30;;;;;;;;;;108846;1264;23949;-31
2022/11/07 03:20:14;;;;;;;7.30;5.80;;;;;;;;;;108799;1268;25393;-30
2022/11/07 03:22:48;;;;;;;7.80;6.20;;;;;;;;;;108841;1269;22601;-31
2022/11/07 03:25:20;;;;;;;7.20;5.80;;;;;;;;;;108802;1267;22712;-31
2022/11/07 03:27:53;;;;;;;7.30;5.60;;;;;;;;;;108760;1266;25442;-30
2022/11/07 03:30:25;;;;;;;7.90;5.70;;;;;;;;;;108822;1268;22550;-31
2022/11/07 03:32:58;;;;;;;7.70;5.90;;;;;;;;;;108781;1263;24026;-30
2022/11/07 03:35:33;;;;;;;7.40;5.80;;;;;;;;;;108808;1269;23672;-31
2022/11/07 03:38:05;;;;;;;8.30;6.00;;;;;;;;;;108795;1269;22543;-31
2022/11/07 03:40:37;;;;;;;7.80;5.90;;;;;;;;;;108815;1268;22551;-31
2022/11/07 03:43:09;;;;;;;8.40;5.80;;;;;;;;;;108803;1265;22605;-31
2022/11/07 03:45:41;;;;;;;7.90;6.20;;;;;;;;;;108870;1268;22549;-31
2022/11/07 03:48:13;;;;;;;8.30;6.40;;;;;;;;;;108785;1263;22565;-31
2022/11/07 03:50:46;;;;;;;7.90;6.20;;;;;;;;;;108828;1268;22580;-31
2022/11/07 03:53:18;;;;;;;8.20;6.40;;;;;;;;;;108836;1267;22536;-31
2022/11/07 03:55:50;;;;;;;7.80;6.00;;;;;;;;;;108834;1265;22740;-31
2022/11/07 03:58:22;;;;;;;8.10;6.20;;;;;;;;;;108769;1267;22558;-31
2022/11/07 04:00:55;;;;;;;8.10;6.20;;;;;;;;;;108807;1263;22516;-30
2022/11/07 04:03:27;;;;;;;7.80;6.10;;;;;;;;;;108799;1267;25263;-31
2022/11/07 04:05:59;;;;;;;7.60;6.00;;;;;;;;;;108825;1262;22569;-31
2022/11/07 04:08:31;;;;;;;7.70;5.80;;;;;;;;;;108774;1268;25393;-31
2022/11/07 04:11:04;;;;;;;9.10;6.40;;;;;;;;;;108825;1263;22531;-31
2022/11/07 04:19:18;;;;;;;8.30;6.10;;;;;;;;;;108806;1265;26061;-30
2022/11/07 04:21:50;;;;;;;8.50;6.70;;;;;;;;;;108793;1268;25858;-31
2022/11/07 04:24:22;;;;;;;7.40;5.90;;;;;;;;;;108848;1265;22964;-31
2022/11/07 04:29:53;;;;;;;7.60;6.10;;;;;;;;;;108396;1268;22529;-31
2022/11/07 04:32:26;;;;;;;8.00;6.40;;;;;;;;;;108822;1259;23888;-31
2022/11/07 04:34:57;;;;;;;;;;;;;;;;;;108856;1268;25248;-31
2022/11/07 04:37:29;;;;;;;8.10;6.40;;;;;;;;;;108838;1266;22638;-31
2022/11/07 04:40:01;;;;;;;8.10;6.60;;;;;;;;;;108770;1263;22629;-31
2022/11/07 04:42:33;;;;;;;8.80;6.50;;;;;;;;;;108818;1266;22554;-31
2022/11/07 04:45:07;;;;;;;9.10;7.00;;;;;;;;;;108833;1268;22842;-31
2022/11/07 04:47:39;;;;;;;8.40;6.80;;;;;;;;;;108865;1269;22543;-31
2022/11/07 04:50:16;;;;;;;7.70;6.30;;;;;;;;;;108762;1264;25957;-31
2022/11/07 04:52:49;;;;;;;9.10;6.50;;;;;;;;;;108810;1263;22558;-31
2022/11/07 04:55:29;;;;;;;8.80;7.10;;;;;;;;;;108814;1267;22561;-31
2022/11/07 04:58:01;;;;;;;9.50;6.50;;;;;;;;;;108797;1267;25386;-31
2022/11/07 05:00:34;;;;;;;9.30;6.80;;;;;;;;;;108802;1262;22528;-31
2022/11/07 05:03:06;;;;;;;8.90;7.20;;;;;;;;;;108846;1263;22531;-31
2022/11/07 05:05:39;;;;;;;8.20;6.60;;;;;;;;;;108810;1266;22774;-31
2022/11/07 05:08:12;;;;;;;8.40;6.30;;;;;;;;;;108811;1264;22606;-31
2022/11/07 05:10:44;;;;;;;8.70;6.70;;;;;;;;;;108785;1263;22708;-30
2022/11/07 05:13:17;;;;;;;8.50;6.50;;;;;;;;;;108844;1264;22721;-31
2022/11/07 05:15:50;;;;;;;8.00;6.40;;;;;;;;;;108805;1262;22541;-31
2022/11/07 05:18:23;;;;;;;8.30;6.40;;;;;;;;;;108811;1268;22570;-31
2022/11/07 05:20:56;;;;;;;9.30;6.60;;;;;;;;;;108774;1262;22549;-31
2022/11/07 05:23:29;;;;;;;9.70;6.60;;;;;;;;;;108838;1268;22542;-31
2022/11/07 05:26:01;;;;;;;8.90;6.80;;;;;;;;;;108814;1263;22508;-31
2022/11/07 05:28:36;;;;;;;8.40;6.50;;;;;;;;;;108830;1263;22539;-31
2022/11/07 05:31:16;;;;;;;8.10;6.50;;;;;;;;;;108793;1267;22584;-31
2022/11/07 05:33:48;;;;;;;8.20;6.50;;;;;;;;;;108812;1265;23750;-31
2022/11/07 05:36:23;;;;;;;8.90;6.60;;;;;;;;;;108767;1268;22828;-31
2022/11/07 05:38:55;;;;;;;9.50;6.70;;;;;;;;;;108835;1268;22547;-31
2022/11/07 05:41:27;;;;;;;9.00;6.50;;;;;;;;;;108769;1264;22547;-31
2022/11/07 05:43:59;;;;;;;9.10;7.00;;;;;;;;;;108782;1264;23898;-31
2022/11/07 05:46:32;;;;;;;9.00;6.80;;;;;;;;;;108774;1265;25389;-31
2022/11/07 05:49:04;;;;;;;8.80;6.80;;;;;;;;;;108804;1265;24144;-31
2022/11/07 05:51:36;;;;;;;8.10;6.30;;;;;;;;;;108757;1260;24333;-31
2022/11/07 05:54:09;;;;;;;;;;;;;;;;;;108804;1264;22529;-31
2022/11/07 05:56:42;;;;;;;8.80;7.00;;;;;;;;;;108846;1265;22710;-31
2022/11/07 05:59:15;;;;;;;9.50;7.30;;;;;;;;;;108803;1261;24016;-31
2022/11/07 06:01:47;;;;;;;8.80;7.00;;;;;;;;;;108722;1264;22727;-31
2022/11/07 06:04:20;;;;;;;8.20;6.80;;;;;;;;;;108837;1267;22579;-31
2022/11/07 06:06:53;;;;;;;8.80;6.50;;;;;;;;;;108801;1265;22548;-31
2022/11/07 06:09:25;;;;;;;9.30;7.00;;;;;;;;;;108617;1264;22546;-31
2022/11/07 06:11:57;;;;;;;10.00;7.40;;;;;;;;;;108781;1264;22526;-31
2022/11/07 06:14:30;;;;;;;9.30;7.00;;;;;;;;;;108790;1263;22558;-31
2022/11/07 06:17:02;;;;;;;8.60;6.60;;;;;;;;;;108792;1266;22561;-31
2022/11/07 06:19:34;;;;;;;9.60;6.90;;;;;;;;;;108833;1259;22555;-31
2022/11/07 06:22:06;;;;;;;8.30;6.90;;;;;;;;;;108786;1265;22650;-31
2022/11/07 06:24:39;;;;;;;9.70;7.60;;;;;;;;;;108842;1268;22756;-30
2022/11/07 06:27:11;;;;;;;9.30;7.20;;;;;;;;;;108856;1265;22556;-29
2022/11/07 06:29:43;;;;;;;9.60;7.30;;;;;;;;;;108869;1256;23916;-29
2022/11/07 06:32:15;;;;;;;9.70;7.20;;;;;;;;;;108807;1268;22541;-29
2022/11/07 06:34:47;;;;;;;9.40;7.50;;;;;;;;;;108823;1265;25386;-30
2022/11/07 06:37:19;;;;;;;9.30;6.80;;;;;;;;;;108822;1265;22541;-30
2022/11/07 06:39:51;;;;;;;11.10;7.30;;;;;;;;;;108849;1265;22628;-30
2022/11/07 06:42:26;;;;;;;10.10;7.20;;;;;;;;;;108763;1266;22562;-30
2022/11/07 06:44:58;;;;;;;9.20;6.80;;;;;;;;;;109277;1244;22527;-28
2022/11/07 06:47:30;;;;;;;9.30;7.00;;;;;;;;;;108814;1262;22534;-27
2022/11/07 06:50:02;;;;;;;9.10;6.90;;;;;;;;;;108812;1262;22492;-28
2022/11/07 06:52:36;;;;;;;9.40;6.70;;;;;;;;;;108781;1265;22538;-27
2022/11/07 06:55:10;;;;;;;9.80;7.40;;;;;;;;;;108870;1263;22563;-28
2022/11/07 06:57:42;;;;;;;10.00;7.30;;;;;;;;;;108760;1262;22533;-28
2022/11/07 07:00:21;;;;;;;9.60;6.80;;;;;;;;;;108796;1269;22490;-28
2022/11/07 07:02:53;;;;;;;10.10;7.40;;;;;;;;;;108825;1262;22565;-28
2022/11/07 07:05:25;;;;;;;9.40;7.00;;;;;;;;;;108814;1265;22553;-27
2022/11/07 07:07:57;;;;;;;9.60;7.20;;;;;;;;;;108819;1262;25331;-27
2022/11/07 07:10:31;;;;;;;;;;;;;;;;;;108821;1265;22509;-27
2022/11/07 07:13:04;;;;;;;9.30;6.90;;;;;;;;;;108767;1265;25309;-28
2022/11/07 07:15:36;;;;;;;10.60;7.00;;;;;;;;;;108784;1264;25839;-27
2022/11/07 07:18:08;;;;;;;10.30;7.30;;;;;;;;;;108858;1262;22716;-27
2022/11/07 07:20:40;;;;;;;9.40;6.90;;;;;;;;;;108770;1263;22618;-27
2022/11/07 07:23:12;;;;;;;9.00;6.70;;;;;;;;;;108756;1268;24008;-27
2022/11/07 07:25:44;;;;;;;9.50;6.80;;;;;;;;;;108806;1268;23715;-27
2022/11/07 07:28:16;;;;;;;9.30;7.00;;;;;;;;;;108828;1262;22534;-28
2022/11/07 07:30:48;;;;;;;9.60;6.90;;;;;;;;;;108825;1262;22545;-28
2022/11/07 07:33:20;;;;;;;8.90;6.50;;;;;;;;;;108789;1268;22502;-27
2022/11/07 07:35:52;;;;;;;9.10;7.00;;;;;;;;;;108850;1264;22565;-27
2022/11/07 07:38:24;;;;;;;8.70;6.40;;;;;;;;;;108687;1262;22557;-27
2022/11/07 07:40:58;;;;;;;8.40;6.80;;;;;;;;;;108704;1269;22560;-28
2022/11/07 07:43:31;;;;;;;7.80;6.30;;;;;;;;;;108778;1268;22567;-28
2022/11/07 07:46:03;;;;;;;;;;;;;;;;;;108631;1262;22522;-28
2022/11/07 07:48:35;;;;;;;8.60;6.50;;;;;;;;;;108804;1255;24876;-28
2022/11/07 07:51:08;;;;;;;9.20;6.30;;;;;;;;;;108686;1269;22586;-28
2022/11/07 07:53:40;;;;;;;8.20;6.90;;;;;;;;;;108687;1264;22508;-28
2022/11/07 07:56:13;;;;;;;9.10;7.00;;;;;;;;;;108794;1262;22550;-28
2022/11/07 07:58:46;;;;;;;8.90;6.70;;;;;;;;;;108830;1263;22605;-28
2022/11/07 08:01:18;;;;;;;9.50;7.50;;;;;;;;;;108664;1268;22479;-28
2022/11/07 08:03:51;;;;;;;9.20;6.60;;;;;;;;;;108358;1270;295256;-28
2022/11/07 08:06:21;;;;;;;;;;;;;;;;;;108724;1268;22557;-28
2022/11/07 08:08:56;;;;;;;9.00;6.30;;;;;;;;;;108817;1256;24537;-28
2022/11/07 08:11:29;;;;;;;10.00;7.30;;;;;;;;;;108730;1264;22540;-28
2022/11/07 08:14:04;;;;;;;9.60;7.20;;;;;;;;;;108832;1268;22542;-28
2022/11/07 08:16:36;;;;;;;9.30;7.30;;;;;;;;;;108811;1262;22560;-28
2022/11/07 08:19:08;;;;;;;9.40;7.00;;;;;;;;;;108725;1268;23935;-28
2022/11/07 08:21:41;;;;;;;9.00;7.60;;;;;;;;;;108621;1269;22544;-28
2022/11/07 08:24:13;;;;;;;9.20;7.20;;;;;;;;;;108763;1264;24277;-28
2022/11/07 08:26:45;;;;;;;10.00;7.30;;;;;;;;;;108715;1264;22552;-28
2022/11/07 08:29:21;;;;;;;10.00;7.30;;;;;;;;;;108837;1262;22720;-28
2022/11/07 08:31:53;;;;;;;10.20;7.30;;;;;;;;;;108819;1263;22634;-28
2022/11/07 08:34:26;;;;;;;10.00;7.40;;;;;;;;;;108619;1271;22506;-28
2022/11/07 08:36:58;;;;;;;8.70;6.80;;;;;;;;;;108716;1262;25389;-28
2022/11/07 08:39:30;;;;;;;9.80;7.00;;;;;;;;;;108636;1268;22542;-28
2022/11/07 08:42:05;;;;;;;8.80;6.70;;;;;;;;;;108803;1268;22561;-28
2022/11/07 08:44:39;;;;;;;9.40;6.80;;;;;;;;;;108621;1265;22558;-27
2022/11/07 08:47:12;;;;;;;10.10;6.80;;;;;;;;;;108724;1264;22544;-27
2022/11/07 08:49:44;;;;;;;8.70;6.80;;;;;;;;;;108778;1262;22527;-27
2022/11/07 08:52:16;;;;;;;8.70;6.30;;;;;;;;;;108793;1268;25244;-28
2022/11/07 08:54:49;;;;;;;9.00;7.20;;;;;;;;;;108710;1269;25487;-28
2022/11/07 08:57:21;;;;;;;9.90;6.70;;;;;;;;;;108564;1267;22550;-28
2022/11/07 08:59:54;;;;;;;9.20;6.80;;;;;;;;;;108793;1268;22712;-28
2022/11/07 09:02:25;;;;;;;;;;;;;;;;;;108786;1265;25371;-28
2022/11/07 09:04:57;;;;;;;9.10;6.90;;;;;;;;;;108719;1262;23924;-28
2022/11/07 09:07:29;;;;;;;9.20;6.90;;;;;;;;;;108744;1269;22517;-28
2022/11/07 09:10:04;;;;;;;9.10;6.70;;;;;;;;;;108780;1263;22741;-28
2022/11/07 09:12:36;;;;;;;8.50;7.00;;;;;;;;;;108790;1268;22579;-28
2022/11/07 09:15:10;;;;;;;8.80;6.70;;;;;;;;;;108700;1264;22723;-28
2022/11/07 09:17:46;;;;;;;10.10;7.20;;;;;;;;;;108845;1267;22545;-28
2022/11/07 09:20:20;;;;;;;9.10;7.00;;;;;;;;;;108660;1262;22479;-28
2022/11/07 09:22:59;;;;;;;8.10;6.90;;;;;;;;;;108769;1265;22558;-28
2022/11/07 09:25:32;;;;;;;8.50;6.50;;;;;;;;;;108783;1268;22680;-28
2022/11/07 09:28:07;;;;;;;8.70;6.90;;;;;;;;;;108660;1262;22539;-28
2022/11/07 09:30:40;;;;;;;8.70;6.70;;;;;;;;;;108777;1261;23820;-28
2022/11/07 09:33:13;;;;;;;8.50;6.60;;;;;;;;;;108835;1267;22557;-28
2022/11/07 09:35:48;;;;;;;9.30;6.80;;;;;;;;;;108778;1265;22824;-28
2022/11/07 09:38:21;;;;;;;9.00;6.90;;;;;;;;;;108733;1268;22533;-28
2022/11/07 09:41:04;;;;;;;8.50;6.90;;;;;;;;;;108760;1263;22505;-28
2022/11/07 09:43:52;;;;;;;;;;;;;;;;;;108833;1264;22503;-28
2022/11/07 09:46:36;;;;;;;8.40;6.90;;;;;;;;;;108731;1268;22554;-28
2022/11/07 09:49:20;;;;;;;9.30;7.00;;;;;;;;;;108651;1268;22535;-28
2022/11/07 09:52:03;;;;;;;7.80;6.20;;;;;;;;;;108636;1258;22548;-28
2022/11/07 09:54:38;;;;;;;9.30;6.50;;;;;;;;;;108690;1262;22802;-28
2022/11/07 09:57:19;;;;;;;8.20;6.70;;;;;;;;;;108701;1264;22552;-28
2022/11/07 09:59:55;;;;;;;8.70;6.70;;;;;;;;;;108631;1267;22558;-28
2022/11/07 10:02:40;;;;;;;7.90;6.60;;;;;;;;;;108810;1267;22585;-28
2022/11/07 10:05:27;;;;;;;8.80;6.90;;;;;;;;;;108772;1264;22606;-28
2022/11/07 10:08:09;;;;;;;9.60;6.40;;;;;;;;;;108695;1265;22748;-28
2022/11/07 10:10:49;;;;;;;8.30;6.50;;;;;;;;;;108759;1262;22496;-28
2022/11/07 10:13:52;;;;;;;8.10;6.50;;;;;;;;;;108725;1268;22706;-28
2022/11/07 10:16:40;;;;;;;7.80;6.10;;;;;;;;;;108597;1262;22545;-28
2022/11/07 10:19:36;;;;;;;8.00;6.00;;;;;;;;;;108792;1262;22545;-28
2022/11/07 10:22:26;;;;;;;8.20;6.60;;;;;;;;;;108624;1262;22559;-28
2022/11/07 10:25:19;;;;;;;8.80;6.80;;;;;;;;;;108694;1262;22547;-28
2022/11/07 10:28:14;;;;;;;9.30;6.70;;;;;;;;;;108580;1265;23902;-28
2022/11/07 10:30:49;;;;;;;7.50;5.90;;;;;;;;;;108810;1263;22523;-28
2022/11/07 10:33:40;;;;;;;8.60;6.40;;;;;;;;;;108763;1265;22687;-28
2022/11/07 10:36:21;;;;;;;8.10;6.30;;;;;;;;;;108561;1265;22577;-28
2022/11/07 10:38:54;;;;;;;6.80;5.70;;;;;;;;;;108648;1266;22556;-28
2022/11/07 10:41:33;;;;;;;8.70;6.20;;;;;;;;;;108686;1264;22606;-28
2022/11/07 10:44:12;;;;;;;7.30;5.70;;;;;;;;;;108755;1264;22565;-28
2022/11/07 10:46:47;;;;;;;7.70;6.00;;;;;;;;;;108722;1263;23844;-28
2022/11/07 10:49:24;;;;;;;7.90;6.20;;;;;;;;;;108752;1265;22536;-28
2022/11/07 10:52:09;;;;;;;8.10;6.00;;;;;;;;;;108739;1268;22544;-28
2022/11/07 10:54:43;;;;;;;7.60;6.10;;;;;;;;;;108660;1264;22545;-29
2022/11/07 10:57:19;;;;;;;7.10;6.10;;;;;;;;;;108537;1263;22559;-29
2022/11/07 11:00:04;;;;;;;7.80;6.00;;;;;;;;;;108640;1265;22775;-29
2022/11/07 11:02:48;;;;;;;7.70;6.10;;;;;;;;;;108739;1264;22603;-29
2022/11/07 11:05:26;;;;;;;7.90;6.00;;;;;;;;;;108757;1263;22541;-30
2022/11/07 11:08:16;;;;;;;7.50;5.80;;;;;;;;;;108753;1262;22549;-31
2022/11/07 11:10:49;;;;;;;8.20;5.80;;;;;;;;;;108637;1264;22501;-31
2022/11/07 11:13:33;;;;;;;8.20;6.00;;;;;;;;;;108611;1265;22630;-31
2022/11/07 11:16:25;;;;;;;7.30;5.70;;;;;;;;;;108621;1260;23895;-31
2022/11/07 11:19:00;;;;;;;7.10;5.10;;;;;;;;;;108721;1263;22586;-30
2022/11/07 11:21:47;;;;;;;6.90;5.20;;;;;;;;;;108737;1266;23911;-30
2022/11/07 11:24:32;;;;;;;7.10;5.20;;;;;;;;;;108797;1266;22658;-31
2022/11/07 11:27:12;;;;;;;7.20;5.40;;;;;;;;;;108811;1262;22545;-31
2022/11/07 11:29:54;;;;;;;7.40;5.50;;;;;;;;;;108647;1265;22550;-29
2022/11/07 11:32:35;;;;;;;8.10;5.50;;;;;;;;;;108748;1263;22608;-30
2022/11/07 11:35:24;;;;;;;7.50;5.50;;;;;;;;;;108789;1265;22586;-31
2022/11/07 11:38:04;;;;;;;6.70;5.10;;;;;;;;;;108642;1262;23786;-30
2022/11/07 11:40:40;;;;;;;7.10;5.60;;;;;;;;;;108778;1263;22560;-30
2022/11/07 11:43:27;;;;;;;8.00;5.50;;;;;;;;;;108646;1265;23833;-30
2022/11/07 11:46:18;;;;;;;6.50;5.40;;;;;;;;;;108513;1272;22553;-30
2022/11/07 11:48:56;;;;;;;8.60;5.40;;;;;;;;;;108503;1266;22502;-29
2022/11/07 11:51:40;;;;;;;7.20;5.30;;;;;;;;;;108551;1265;22539;-30
2022/11/07 11:54:15;;;;;;;6.70;5.10;;;;;;;;;;108533;1265;22552;-31
2022/11/07 11:56:55;;;;;;;7.60;5.40;;;;;;;;;;108567;1266;22796;-30
2022/11/07 11:59:56;;;;;;;6.20;5.20;;;;;;;;;;108533;1265;23224;-30
2022/11/07 12:02:48;;;;;;;7.50;5.40;;;;;;;;;;108572;1266;22536;-30
2022/11/07 12:05:42;;;;;;;6.70;5.20;;;;;;;;;;108563;1266;22788;-30
2022/11/07 12:08:33;;;;;;;7.10;5.10;;;;;;;;;;108447;1267;22597;-30
2022/11/07 12:11:16;;;;;;;7.50;5.00;;;;;;;;;;108543;1266;22567;-30
2022/11/07 12:14:01;;;;;;;7.10;5.50;;;;;;;;;;108507;1268;22552;-29
2022/11/07 12:16:44;;;;;;;7.40;5.30;;;;;;;;;;108548;1265;22568;-30
2022/11/07 12:19:25;;;;;;;7.40;5.20;;;;;;;;;;108465;1268;23871;-31
2022/11/07 12:22:10;;;;;;;7.80;5.50;;;;;;;;;;108505;1268;22545;-30
2022/11/07 12:24:51;;;;;;;6.60;4.90;;;;;;;;;;108530;1266;22550;-31
2022/11/07 12:27:34;;;;;;;8.40;4.90;;;;;;;;;;108534;1266;22788;-32
2022/11/07 12:30:20;;;;;;;7.40;5.00;;;;;;;;;;108501;1268;22565;-32
2022/11/07 12:33:11;;;;;;;7.40;5.00;;;;;;;;;;108563;1265;22591;-30
2022/11/07 12:35:52;;;;;;;6.80;4.90;;;;;;;;;;108545;1265;22556;-30
2022/11/07 12:39:09;;;;;;;7.10;5.10;;;;;;;;;;108563;1265;22744;-30
2022/11/07 12:41:54;;;;;;;6.70;5.00;;;;;;;;;;108526;1265;22583;-31
2022/11/07 12:44:49;;;;;;;7.00;5.00;;;;;;;;;;108593;1265;22723;-30
2022/11/07 12:47:44;;;;;;;6.70;4.80;;;;;;;;;;108825;1263;22531;-30
2022/11/07 12:50:39;;;;;;;7.20;5.20;;;;;;;;;;108639;1268;22600;-28
2022/11/07 12:53:28;;;;;;;6.00;4.50;;;;;;;;;;108706;1263;22556;-31
2022/11/07 12:56:07;;;;;;;7.30;4.50;;;;;;;;;;108582;1255;22677;-31
2022/11/07 12:58:44;;;;;;;6.70;4.70;;;;;;;;;;108608;1263;22511;-30
2022/11/07 13:01:22;;;;;;;7.10;4.90;;;;;;;;;;108633;1265;22558;-30
2022/11/07 13:04:08;;;;;;;6.20;4.50;;;;;;;;;;108644;1263;22546;-28
2022/11/07 13:06:51;;;;;;;6.80;4.60;;;;;;;;;;108699;1263;22564;-28
2022/11/07 13:09:31;;;;;;;8.60;4.80;;;;;;;;;;108790;1257;25492;-28
2022/11/07 13:12:15;;;;;;;5.90;4.10;;;;;;;;;;108785;1256;22540;-27
2022/11/07 13:14:50;;;;;;;5.80;4.30;;;;;;;;;;108767;1263;22533;-29
2022/11/07 13:17:30;;;;;;;6.30;4.10;;;;;;;;;;108797;1262;23943;-29
2022/11/07 13:20:30;;;;;;;6.30;4.30;;;;;;;;;;108627;1265;22564;-29
2022/11/07 13:23:19;;;;;;;6.90;4.50;;;;;;;;;;108668;1262;23679;-30
2022/11/07 13:26:04;;;;;;;6.10;4.40;;;;;;;;;;108634;1265;22846;-29
2022/11/07 13:28:42;;;;;;;7.00;4.30;;;;;;;;;;108788;1262;22543;-29
2022/11/07 13:31:38;;;;;;;6.50;4.50;;;;;;;;;;108638;1263;22506;-29
2022/11/07 13:34:27;;;;;;;6.70;4.10;;;;;;;;;;108699;1262;22526;-28
2022/11/07 13:37:03;;;;;;;6.50;4.50;;;;;;;;;;108709;1262;22586;-28
2022/11/07 13:39:38;;;;;;;6.70;4.20;;;;;;;;;;108606;1258;22562;-29
2022/11/07 13:42:18;;;;;;;6.00;4.20;;;;;;;;;;108796;1262;22586;-29
2022/11/07 13:44:57;;;;;;;6.10;4.30;;;;;;;;;;108802;1262;22536;-28
2022/11/07 13:47:38;;;;;;;6.20;4.20;;;;;;;;;;108776;1264;25424;-28
2022/11/07 13:50:22;;;;;;;6.40;4.10;;;;;;;;;;108771;1259;22558;-29
2022/11/07 13:53:02;;;;;;;6.90;4.40;;;;;;;;;;108703;1265;22929;-29
2022/11/07 13:55:44;;;;;;;6.20;4.30;;;;;;;;;;108784;1262;22548;-29
2022/11/07 13:58:18;;;;;;;6.20;4.10;;;;;;;;;;108670;1256;22490;-29
2022/11/07 14:00:51;;;;;;;5.80;4.20;;;;;;;;;;108705;1263;22564;-29
2022/11/07 14:03:29;;;;;;;5.80;4.30;;;;;;;;;;108824;1262;22549;-28
2022/11/07 14:06:07;;;;;;;5.90;4.00;;;;;;;;;;108681;1265;23897;-29
2022/11/07 14:08:45;;;;;;;6.60;4.30;;;;;;;;;;108556;1259;25458;-27
2022/11/07 14:11:26;;;;;;;6.20;3.90;;;;;;;;;;108737;1262;22551;-28
2022/11/07 14:14:02;;;;;;;6.00;4.40;;;;;;;;;;108607;1265;22550;-29
2022/11/07 14:16:34;;;;;;;6.50;4.20;;;;;;;;;;108693;1258;23966;-29
2022/11/07 14:19:14;;;;;;;6.00;4.10;;;;;;;;;;108700;1263;25409;-28
2022/11/07 14:21:48;;;;;;;7.00;4.30;;;;;;;;;;108602;1265;23996;-28
2022/11/07 14:24:27;;;;;;;5.80;3.90;;;;;;;;;;108738;1262;22634;-28
2022/11/07 14:27:06;;;;;;;5.80;4.20;;;;;;;;;;108728;1262;22542;-30
2022/11/07 14:29:38;;;;;;;6.00;3.80;;;;;;;;;;108831;1262;22569;-29
2022/11/07 14:32:17;;;;;;;5.90;3.70;;;;;;;;;;108634;1265;22535;-30
2022/11/07 14:34:53;;;;;;;5.90;4.10;;;;;;;;;;108759;1257;22626;-29
2022/11/07 14:37:27;;;;;;;5.50;3.80;;;;;;;;;;108796;1262;23538;-30
2022/11/07 14:40:02;;;;;;;6.20;4.10;;;;;;;;;;108660;1256;22563;-30
2022/11/07 14:42:34;;;;;;;6.30;4.30;;;;;;;;;;108761;1263;23851;-30
2022/11/07 14:45:10;;;;;;;6.20;4.30;;;;;;;;;;108804;1262;22537;-30
2022/11/07 14:47:43;;;;;;;5.80;3.90;;;;;;;;;;108763;1259;22767;-30
2022/11/07 14:50:26;;;;;;;7.00;4.20;;;;;;;;;;108799;1262;23024;-30
2022/11/07 14:53:04;;;;;;;6.20;4.00;;;;;;;;;;108622;1262;22574;-30
2022/11/07 14:55:42;;;;;;;5.80;3.60;;;;;;;;;;108799;1262;24096;-29
2022/11/07 14:58:16;;;;;;;6.20;3.70;;;;;;;;;;108684;1262;22554;-30
2022/11/07 15:01:10;;;;;;;6.40;3.80;;;;;;;;;;108770;1265;22539;-30
2022/11/07 15:03:55;;;;;;;5.80;3.50;;;;;;;;;;108896;1261;22572;-30
2022/11/07 15:06:34;;;;;;;6.10;4.00;;;;;;;;;;108619;1265;22544;-30
2022/11/07 15:09:10;;;;;;;6.10;4.10;;;;;;;;;;108748;1262;22538;-29
2022/11/07 15:11:54;;;;;;;6.40;3.90;;;;;;;;;;108585;1262;22543;-29
2022/11/07 15:14:32;;;;;;;6.10;4.10;;;;;;;;;;108803;1261;22605;-29
2022/11/07 15:17:05;;;;;;;6.10;3.70;;;;;;;;;;108673;1265;22556;-29
2022/11/07 15:19:40;;;;;;;5.70;3.70;;;;;;;;;;108788;1262;22614;-30
2022/11/07 15:22:37;;;;;;;5.90;3.80;;;;;;;;;;108716;1263;25414;-29
2022/11/07 15:25:27;;;;;;;5.60;3.60;;;;;;;;;;108671;1263;22608;-30
2022/11/07 15:28:16;;;;;;;5.50;3.80;;;;;;;;;;108682;1259;22597;-30
2022/11/07 15:30:50;;;;;;;5.80;4.10;;;;;;;;;;108708;1255;22615;-30
2022/11/07 15:33:23;;;;;;;6.20;4.00;;;;;;;;;;108765;1262;22609;-30
2022/11/07 15:36:00;;;;;;;5.50;3.80;;;;;;;;;;108655;1262;22541;-30
2022/11/07 15:38:33;;;;;;;6.10;3.80;;;;;;;;;;108781;1262;22781;-30
2022/11/07 15:41:06;;;;;;;6.30;3.90;;;;;;;;;;108656;1265;22557;-30